x

Port Stanley (45132) Wave Buoy

3:00pm - Sat 24th Sep 2016 All times are CDT. -5 hours from GMT.

  • Sig Wave height 1.6ft
  • Peak Period 5s
  • Wind
    2mph, 4mph gusts
  • Sea Temp 73°f
  • Air Temp 64°f
  • Sea Pressure 1023.4mb
  • Port Stanley
  • Port Stanley

More Historic Weather Station data

Upgrade to MSW Pro to gain access to the past 30 days of data for over 8000 Wavebouys and Weather Stations around the globe.

Join Pro

Comparision Forecast

View Surf forecast
   
Sat 09/24 3:00pm 1.6ft 5s 2 4 mph 1023.4mb 73f 64f
2:00pm 1.6ft 4s 4 11 mph 1023.6mb 73f 63f
1:00pm 2ft 4s 9 11 mph 1024mb 73f 62f
12:00pm 2.5ft 5s 11 16 mph 1024.5mb 72f 61f
11:00am 2.5ft 5s 16 20 mph 1024.6mb 72f 61f
10:00am 3.5ft 5s 18 22 mph 1024.7mb 72f 60f
9:00am 3.5ft 5s 20 25 mph 1024.1mb 72f 60f
8:00am 3.5ft 5s 20 27 mph 1023.8mb 72f 60f
7:00am 3.5ft 4s 20 25 mph 1023.3mb 72f 60f
6:00am 3.5ft 5s 22 25 mph 1022.6mb 73f 60f
5:00am 3.5ft 5s 22 29 mph 1021.9mb 73f 60f
4:00am 3ft 5s 20 25 mph 1021.3mb 73f 61f
3:00am 3ft 5s 18 20 mph 1020.9mb 73f 61f
2:00am 3.5ft 5s 16 18 mph 1021.3mb 72f 62f
1:00am 3ft 5s 18 22 mph 1021.1mb 72f 63f
12:00am 3.5ft 5s 20 25 mph 1020.9mb 72f 63f
Fri 09/23 11:00pm 3.5ft 5s 22 27 mph 1021mb 72f 62f
10:00pm 3.5ft 5s 22 27 mph 1021mb 73f 63f
9:00pm 3ft 5s 22 27 mph 1020.3mb 73f 63f
8:00pm 3ft 5s 16 20 mph 1020.1mb 73f 62f
7:00pm 3ft 5s 18 22 mph 1019.8mb 73f 63f
6:00pm 2.5ft 4s 20 22 mph 1019.1mb 73f 63f
5:00pm 2.5ft 4s 20 22 mph 1018.5mb 74f 65f
4:00pm 2ft 3s 18 20 mph 1017.9mb 74f 68f
3:00pm 1ft 3s 16 18 mph 1017.4mb 74f 71f
2:00pm 0.7ft 2s 11 13 mph 1017.2mb 74f 73f
1:00pm 0.7ft 2s 9
mph
1017.5mb 74f 74f
12:00pm 0.7ft 2s 9 11 mph 1017.7mb 74f 74f
10:00am 0.3ft 2s 9 11 mph 1017.5mb 74f 74f
9:00am 0.3ft 2s 9 11 mph 1017.4mb 74f 73f
8:00am 0.3ft 2s 9 11 mph 1017.1mb 74f 73f
7:00am 0.3ft 2s 7 9 mph 1017.1mb 74f 73f
6:00am 0.3ft 2s 9 11 mph 1016.8mb 74f 74f
5:00am 0.3ft 2s 4 7 mph 1016.4mb 74f 74f
4:00am 0.3ft 2s 2
mph
1015.8mb 74f 74f
3:00am 0.3ft 2s 4
mph
1016mb 74f 74f
2:00am 0.3ft 3s 2 4 mph 1016.2mb 74f 75f
1:00am 0.3ft 2s 2 4 mph 1016.4mb 74f 75f
12:00am 0.3ft 2s 4
mph
1016.4mb 74f 75f
Thu 09/22 11:00pm 0.3ft 2s 4
mph
1016.7mb 74f 75f
10:00pm 0.3ft 2s 9
mph
1016.6mb 74f 75f
9:00pm 0.3ft 3s 9
mph
1016.5mb 74f 76f
8:00pm 0.3ft 3s 2 4 mph 1016.9mb 75f 75f
7:00pm 0.3ft 3s 2 4 mph 1016.5mb 75f 76f
6:00pm 0.7ft 3s 7 9 mph 1016.6mb 75f 76f
5:00pm 0.7ft 3s 9
mph
1017.2mb 75f 76f
4:00pm 0.7ft 3s 11 13 mph 1017.5mb 75f 76f
3:00pm 0.7ft 3s 11 13 mph 1017.8mb 76f 76f
2:00pm 0.7ft 3s 9
mph
1018.2mb 76f 76f
1:00pm 1ft 3s 7
mph
1018.7mb 76f 74f
12:00pm 0.7ft 3s 9
mph
1019.5mb 75f 74f
11:00am 0.7ft 3s 7
mph
1019.9mb 75f 74f
10:00am 0.7ft 3s 7 9 mph 1020mb 75f 74f
9:00am 0.7ft 2s 9
mph
1019.7mb 74f 74f
8:00am 0.3ft 2s 11 13 mph 1019.3mb 74f 74f
7:00am 0.3ft 2s 7 9 mph 1020.1mb 74f 73f
6:00am 0.3ft 2s 9
mph
1019.9mb 74f 73f
5:00am 0.3ft 3s 4
mph
1019.9mb 74f 73f
4:00am 0.3ft 2s 4
mph
1020mb 74f 73f
3:00am 0.3ft 3s 4
mph
1019.9mb 74f 73f
2:00am 0.3ft 3s 4
mph
1020.2mb 74f 73f
1:00am 0.3ft 3s 4
mph
1020.2mb 74f 74f
12:00am 0.3ft 3s 4 7 mph 1020.6mb 74f 74f
Wed 09/21 11:00pm 0.7ft 3s 4
mph
1020.7mb 74f 74f
10:00pm 0.7ft 3s 9
mph
1020.2mb 74f 74f
9:00pm 0.7ft 3s 7 9 mph 1020.7mb 74f 74f
8:00pm 0.7ft 3s 9
mph
1021.1mb 74f 74f
7:00pm 0.7ft 2s 7 9 mph 1021.3mb 75f 74f
6:00pm 0.7ft 3s 9
mph
1021.1mb 75f 74f
5:00pm 0.7ft 3s 11
mph
1020.6mb 75f 75f
4:00pm 0.7ft 3s 9
mph
1021.1mb 76f 74f
3:00pm 0.7ft 3s 9
mph
1021.4mb 76f 73f
2:00pm 1ft 4s 4 7 mph 1022.3mb 76f 73f
1:00pm 0.7ft 4s 2
mph
1023.5mb 76f 74f
12:00pm 0.7ft 4s 2
mph
1024mb 75f 74f
11:00am 0.7ft 3s 2 4 mph 1023.6mb 74f 73f
10:00am 0.7ft 3s 7 9 mph 1023.5mb 74f 73f
9:00am 1ft 3s 4 7 mph 1023.9mb 74f 73f
8:00am 0.7ft 3s 11 13 mph 1023mb 73f 73f
7:00am 0.7ft 3s 11 13 mph 1022.8mb 73f 73f
6:00am 0.7ft 3s 9 13 mph 1022.8mb 73f 72f
5:00am 0.7ft 2s 11 13 mph 1022.1mb 73f 72f
4:00am 0.3ft 2s 11 13 mph 1022mb 73f 73f
3:00am 0.3ft 2s 9 11 mph 1022.2mb 73f 71f
2:00am 0.3ft 2s 9 11 mph 1022.3mb 73f 71f
1:00am 0.3ft 2s 9
mph
1022.2mb 74f 72f
12:00am 0.3ft 2s 9 11 mph 1022.1mb 74f 71f
Tue 09/20 11:00pm 0.3ft 2s 9 11 mph 1022mb 74f 72f
10:00pm 0.7ft 2s 9 11 mph 1021.6mb 74f 73f